Time;durP1;ratioP1;P1;durP2;ratioP2;P2;SDS_P1;SDS_P2;PMS_P1;PMS_P2;Temp;Humidity;BMP_temperature;BMP_pressure;BME280_temperature;BME280_humidity;BME280_pressure;Samples;Min_cycle;Max_cycle;Signal;HPM_P1;HPM_P2
2020/12/21 00:00:10;;;;;;;8.13;5.03;;;;;;;5.06;70.00;95669.44;5013324;28;20220;-74
2020/12/21 00:02:36;;;;;;;9.07;5.90;;;;;;;5.03;68.75;95642.44;5013250;28;20180;-74
2020/12/21 00:05:02;;;;;;;10.77;6.00;;;;;;;5.20;68.82;95663.06;5013147;28;20185;-74
2020/12/21 00:07:28;;;;;;;10.00;6.05;;;;;;;5.22;69.29;95657.50;5013467;28;20178;-75
2020/12/21 00:09:53;;;;;;;9.37;5.70;;;;;;;5.41;68.80;95674.09;5013331;28;20248;-75
2020/12/21 00:12:19;;;;;;;11.87;5.90;;;;;;;5.28;68.87;95659.75;5013528;28;20243;-74
2020/12/21 00:14:44;;;;;;;9.70;5.63;;;;;;;5.34;68.50;95662.31;5012873;28;20214;-74
2020/12/21 00:17:10;;;;;;;9.57;6.40;;;;;;;5.30;68.36;95673.47;5012947;28;20200;-74
2020/12/21 00:19:35;;;;;;;8.23;4.83;;;;;;;4.94;68.96;95644.19;5013234;28;20219;-74
2020/12/21 00:22:01;;;;;;;9.20;5.57;;;;;;;5.02;69.75;95677.16;5011785;28;20169;-73
2020/12/21 00:24:26;;;;;;;9.27;5.20;;;;;;;5.20;69.16;95676.31;5013019;28;20669;-74
2020/12/21 00:26:52;;;;;;;10.10;5.67;;;;;;;5.20;68.99;95678.94;5012720;28;20217;-73
2020/12/21 00:29:18;;;;;;;9.97;5.13;;;;;;;5.05;69.66;95663.34;5011681;28;20200;-73
2020/12/21 00:31:44;;;;;;;10.55;5.43;;;;;;;5.28;69.66;95680.94;5012586;28;20596;-74
2020/12/21 00:34:10;;;;;;;10.10;5.00;;;;;;;5.18;69.72;95680.34;5012567;28;20184;-73
2020/12/21 00:36:43;;;;;;;8.50;5.10;;;;;;;5.32;68.52;95679.25;5012359;28;20530;-74
2020/12/21 00:39:09;;;;;;;8.85;5.00;;;;;;;5.22;68.67;95678.69;5011371;28;20188;-73
2020/12/21 00:41:34;;;;;;;9.27;4.65;;;;;;;5.33;67.87;95674.75;5012306;28;20185;-74
2020/12/21 00:44:00;;;;;;;7.43;4.97;;;;;;;5.41;67.24;95682.03;5012880;28;20181;-74
2020/12/21 00:46:27;;;;;;;8.50;4.70;;;;;;;5.14;68.77;95658.16;5012407;28;20312;-73
2020/12/21 00:48:53;;;;;;;7.60;4.57;;;;;;;5.16;69.12;95682.47;5012112;28;20734;-76
2020/12/21 00:51:19;;;;;;;6.57;4.53;;;;;;;5.03;68.66;95676.06;5012476;28;20663;-73
2020/12/21 00:53:45;;;;;;;8.63;4.83;;;;;;;5.17;68.36;95674.25;5012052;28;20207;-74
2020/12/21 00:56:11;;;;;;;9.60;5.43;;;;;;;5.18;68.27;95678.47;5012480;28;20675;-75
2020/12/21 00:58:40;;;;;;;10.57;5.83;;;;;;;5.34;67.17;95680.88;5011141;28;20556;-75
2020/12/21 01:01:07;;;;;;;7.47;4.57;;;;;;;5.21;68.21;95671.78;5012966;28;20173;-75
2020/12/21 01:03:34;;;;;;;8.38;5.07;;;;;;;5.05;67.07;95642.16;5011738;28;20283;-75
2020/12/21 01:06:00;;;;;;;9.90;5.53;;;;;;;5.29;67.27;95682.50;5012217;28;20651;-74
2020/12/21 01:08:25;;;;;;;6.37;3.93;;;;;;;5.34;67.55;95686.16;5011941;28;20203;-75
2020/12/21 01:10:51;;;;;;;8.27;4.80;;;;;;;5.25;67.95;95681.50;5011048;28;20176;-74
2020/12/21 01:13:16;;;;;;;5.73;3.80;;;;;;;5.26;68.07;95680.44;5012102;28;20176;-75
2020/12/21 01:15:42;;;;;;;7.90;5.50;;;;;;;5.13;68.66;95667.19;5012245;28;20227;-74
2020/12/21 01:18:08;;;;;;;7.57;4.57;;;;;;;5.22;68.05;95676.03;5012215;28;20553;-74
2020/12/21 01:20:33;;;;;;;8.63;4.90;;;;;;;5.39;66.93;95680.75;5011781;28;20173;-74
2020/12/21 01:22:59;;;;;;;8.20;4.77;;;;;;;5.21;67.72;95679.72;5010616;28;20227;-74
2020/12/21 01:25:24;;;;;;;6.90;4.10;;;;;;;5.28;67.51;95686.25;5011756;28;20223;-73
2020/12/21 01:27:50;;;;;;;6.03;4.00;;;;;;;5.33;67.49;95674.75;5011716;28;20224;-74
2020/12/21 01:30:15;;;;;;;8.83;4.50;;;;;;;5.26;67.84;95677.78;5011749;28;20244;-74
2020/12/21 01:32:41;;;;;;;7.87;5.17;;;;;;;5.25;68.02;95678.09;5011757;28;20174;-73
2020/12/21 01:35:06;;;;;;;9.77;5.43;;;;;;;5.25;66.99;95660.34;5011884;28;20200;-73
2020/12/21 01:37:32;;;;;;;11.57;5.50;;;;;;;5.42;66.79;95678.31;5011865;28;20193;-75
2020/12/21 01:39:58;;;;;;;8.50;5.20;;;;;;;5.39;66.71;95675.44;5011792;28;20177;-74
2020/12/21 01:42:23;;;;;;;9.40;4.60;;;;;;;5.22;67.68;95658.28;5011713;28;20235;-75
2020/12/21 01:44:49;;;;;;;7.63;4.97;;;;;;;5.31;66.92;95666.31;5012079;28;20176;-75
2020/12/21 01:47:15;;;;;;;10.20;5.10;;;;;;;5.44;67.15;95673.50;5011849;28;20339;-75
2020/12/21 01:49:41;;;;;;;8.50;4.38;;;;;;;5.38;67.31;95673.88;5012122;28;20201;-75
2020/12/21 01:52:07;;;;;;;7.40;4.53;;;;;;;5.41;66.23;95662.72;4978207;28;20610;-75
2020/12/21 01:54:33;;;;;;;8.80;4.57;;;;;;;5.35;66.81;95651.44;5011914;28;20179;-75
2020/12/21 01:56:58;;;;;;;9.13;4.67;;;;;;;5.42;66.37;95674.88;5011827;28;20173;-75
2020/12/21 01:59:24;;;;;;;15.10;5.50;;;;;;;5.27;67.36;95665.31;5012017;28;20670;-76
2020/12/21 02:01:50;;;;;;;8.63;5.67;;;;;;;4.94;67.88;95622.25;5011796;28;20204;-76
2020/12/21 02:04:15;;;;;;;8.50;4.80;;;;;;;4.89;68.33;95646.16;5011840;28;20181;-75
2020/12/21 02:06:41;;;;;;;8.87;4.83;;;;;;;4.93;68.50;95641.81;5012270;28;20197;-75
2020/12/21 02:09:06;;;;;;;9.03;5.23;;;;;;;5.20;68.88;95671.00;4993691;28;20227;-75
2020/12/21 02:11:32;;;;;;;7.80;5.40;;;;;;;5.19;68.01;95655.41;5011838;28;20636;-75
2020/12/21 02:13:57;;;;;;;9.23;4.97;;;;;;;5.20;68.38;95673.66;5011727;28;20219;-75
2020/12/21 02:16:23;;;;;;;8.73;4.43;;;;;;;5.27;68.34;95666.09;5011795;28;20691;-76
2020/12/21 02:18:48;;;;;;;8.07;4.90;;;;;;;5.27;67.68;95658.16;5011850;28;20664;-75
2020/12/21 02:21:14;;;;;;;12.90;4.50;;;;;;;5.49;66.42;95667.31;5011753;28;20185;-76
2020/12/21 02:23:39;;;;;;;8.87;4.93;;;;;;;5.55;66.02;95663.50;5011838;28;20664;-73
2020/12/21 02:26:05;;;;;;;8.67;5.07;;;;;;;5.46;66.91;95655.47;5011524;28;20169;-75
2020/12/21 02:28:30;;;;;;;8.53;5.07;;;;;;;5.42;66.51;95651.81;5011631;28;20230;-75
2020/12/21 02:30:56;;;;;;;11.67;5.30;;;;;;;5.48;66.29;95653.28;5011336;28;20687;-75
2020/12/21 02:33:21;;;;;;;8.33;4.73;;;;;;;5.45;66.25;95653.91;5011762;28;20178;-75
2020/12/21 02:35:47;;;;;;;8.87;4.90;;;;;;;5.33;66.51;95645.63;5011250;28;20200;-75
2020/12/21 02:38:12;;;;;;;10.07;4.90;;;;;;;5.26;67.30;95653.16;5011773;28;20200;-75
2020/12/21 02:40:39;;;;;;;8.97;4.70;;;;;;;5.32;67.80;95659.94;5011574;28;20169;-75
2020/12/21 02:43:04;;;;;;;10.47;5.33;;;;;;;5.33;67.60;95650.91;5011556;28;20177;-75
2020/12/21 02:45:30;;;;;;;8.83;5.10;;;;;;;5.09;67.15;95623.81;5013216;28;20973;-75
2020/12/21 02:47:56;;;;;;;8.73;5.10;;;;;;;5.20;68.32;95649.81;5015187;28;20208;-76
2020/12/21 02:50:21;;;;;;;7.93;4.37;;;;;;;5.16;68.00;95637.47;5014793;28;20300;-74
2020/12/21 02:52:47;;;;;;;8.70;4.93;;;;;;;5.34;67.71;95649.09;5014937;28;20161;-75
2020/12/21 02:55:12;;;;;;;8.83;5.07;;;;;;;5.27;67.36;95642.28;5014981;28;20204;-74
2020/12/21 02:57:38;;;;;;;8.47;4.67;;;;;;;5.43;66.87;95644.66;5013182;28;20314;-75
2020/12/21 03:00:08;;;;;;;9.27;5.27;;;;;;;5.31;66.86;95634.53;5014813;28;20200;-75
2020/12/21 03:02:33;;;;;;;10.00;4.75;;;;;;;5.34;67.42;95660.47;5014385;28;20184;-75
2020/12/21 03:04:59;;;;;;;9.00;4.87;;;;;;;5.43;67.00;95653.38;5014507;28;20205;-75
2020/12/21 03:07:24;;;;;;;7.67;5.17;;;;;;;5.38;67.42;95658.78;5014347;28;20217;-74
2020/12/21 03:09:50;;;;;;;9.10;5.03;;;;;;;5.34;67.69;95647.22;5014442;28;20208;-76
2020/12/21 03:12:15;;;;;;;12.47;5.70;;;;;;;5.25;68.24;95665.63;5014369;28;20664;-75
2020/12/21 03:14:41;;;;;;;7.97;5.03;;;;;;;5.37;68.16;95669.66;5013356;28;20271;-75
2020/12/21 03:17:06;;;;;;;10.80;5.57;;;;;;;5.12;67.83;95633.84;5013990;28;20188;-76
2020/12/21 03:19:32;;;;;;;9.10;4.53;;;;;;;5.20;68.93;95663.06;5013314;28;20177;-75
2020/12/21 03:21:57;;;;;;;9.60;5.30;;;;;;;5.10;68.15;95630.69;5014130;28;20262;-75
2020/12/21 03:24:23;;;;;;;9.63;6.10;;;;;;;5.23;67.67;95673.09;5014010;28;20659;-74
2020/12/21 03:26:48;;;;;;;7.30;4.73;;;;;;;5.29;68.26;95665.84;5013987;28;20225;-75
2020/12/21 03:29:16;;;;;;;11.10;5.43;;;;;;;5.06;68.30;95632.38;5014164;28;20264;-75
2020/12/21 03:31:41;;;;;;;9.27;5.60;;;;;;;5.27;67.67;95657.38;5014181;28;20188;-75
2020/12/21 03:34:07;;;;;;;8.40;4.27;;;;;;;5.30;68.13;95648.88;5012641;28;20941;-74
2020/12/21 03:36:32;;;;;;;7.93;4.70;;;;;;;5.28;67.65;95649.16;5013981;28;20165;-76
2020/12/21 03:38:58;;;;;;;7.47;4.47;;;;;;;5.43;67.74;95649.97;5013542;28;20180;-75
2020/12/21 03:41:23;;;;;;;12.63;5.60;;;;;;;5.31;67.85;95655.72;5013860;28;20173;-74
2020/12/21 03:43:49;;;;;;;8.27;5.43;;;;;;;5.37;68.39;95657.22;5013845;28;20208;-74
2020/12/21 03:46:14;;;;;;;10.20;5.07;;;;;;;5.28;68.04;95649.16;5014209;28;20605;-75
2020/12/21 03:48:40;;;;;;;9.47;5.70;;;;;;;5.36;68.89;95660.16;5013599;28;20196;-75
2020/12/21 03:51:05;;;;;;;9.27;5.60;;;;;;;5.19;67.86;95634.25;5013407;28;20181;-75
2020/12/21 03:53:31;;;;;;;12.50;4.90;;;;;;;5.40;67.57;95656.63;5013375;28;20173;-74
2020/12/21 03:55:56;;;;;;;8.10;4.60;;;;;;;5.49;67.05;95659.38;5013154;28;20201;-75
2020/12/21 03:58:22;;;;;;;11.27;5.63;;;;;;;5.25;67.94;95657.69;5013513;28;20251;-74
2020/12/21 04:00:48;;;;;;;9.93;5.50;;;;;;;5.36;68.33;95653.00;5013591;28;20239;-76
2020/12/21 04:03:13;;;;;;;7.93;5.03;;;;;;;5.41;67.69;95652.13;5013696;28;20176;-74
2020/12/21 04:05:39;;;;;;;6.63;4.30;;;;;;;5.34;66.70;95635.84;5012881;28;20203;-75
2020/12/21 04:08:04;;;;;;;10.73;5.27;;;;;;;5.36;66.82;95641.63;5013188;28;20208;-74
2020/12/21 04:10:30;;;;;;;8.80;6.00;;;;;;;5.41;68.08;95658.19;5013129;28;20292;-74
2020/12/21 04:12:56;;;;;;;8.90;4.87;;;;;;;5.41;67.02;95662.72;5013196;28;20549;-74
2020/12/21 04:15:21;;;;;;;7.03;4.47;;;;;;;5.10;68.62;95651.88;5013363;28;20644;-74
2020/12/21 04:17:47;;;;;;;8.20;4.27;;;;;;;4.93;68.26;95610.84;5013015;28;20271;-75
2020/12/21 04:20:12;;;;;;;11.80;5.60;;;;;;;5.32;68.69;95657.28;5013401;28;20752;-74
2020/12/21 04:22:38;;;;;;;10.37;6.10;;;;;;;5.24;68.18;95658.75;5012703;28;20176;-74
2020/12/21 04:25:03;;;;;;;14.93;6.07;;;;;;;5.03;69.34;95650.38;5012621;28;20249;-75
2020/12/21 04:27:29;;;;;;;10.20;5.43;;;;;;;4.98;69.14;95644.38;5012535;28;20334;-74
2020/12/21 04:29:54;;;;;;;14.20;6.57;;;;;;;5.22;68.68;95644.25;5012813;28;20742;-75
2020/12/21 04:32:20;;;;;;;10.63;5.10;;;;;;;5.19;68.45;95640.31;5011804;28;20640;-75
2020/12/21 04:34:45;;;;;;;11.13;6.23;;;;;;;5.07;69.32;95647.94;5013098;28;20678;-75
2020/12/21 04:37:11;;;;;;;10.77;5.83;;;;;;;5.18;69.42;95649.34;5013070;28;20165;-74
2020/12/21 04:39:36;;;;;;;10.10;5.97;;;;;;;5.16;68.86;95640.09;5012423;28;20181;-74
2020/12/21 04:42:02;;;;;;;14.17;7.23;;;;;;;5.25;69.57;95651.59;5012515;28;20200;-74
2020/12/21 04:44:28;;;;;;;16.10;6.37;;;;;;;5.36;68.43;95649.56;5012415;28;20331;-74
2020/12/21 04:46:57;;;;;;;10.67;5.87;;;;;;;5.22;68.74;95638.97;5010756;28;20188;-74
2020/12/21 04:49:23;;;;;;;14.20;7.07;;;;;;;5.41;68.36;95660.84;5011296;28;20197;-74
2020/12/21 04:51:50;;;;;;;12.43;6.67;;;;;;;5.31;69.35;95653.09;5013042;28;20588;-75
2020/12/21 04:54:16;;;;;;;12.73;6.65;;;;;;;5.40;69.01;95656.63;5012043;28;20591;-74
2020/12/21 04:56:42;;;;;;;11.70;6.07;;;;;;;5.38;67.57;95642.88;5012227;28;20664;-74
2020/12/21 04:59:08;;;;;;;12.20;6.27;;;;;;;5.46;68.58;95650.16;5012415;28;20582;-74
2020/12/21 05:01:34;;;;;;;9.77;5.88;;;;;;;5.06;69.52;95645.59;5011836;28;20669;-74
2020/12/21 05:03:59;;;;;;;15.87;7.53;;;;;;;5.06;69.24;95645.59;5012056;28;20209;-73
2020/12/21 05:06:25;;;;;;;13.37;6.33;;;;;;;5.14;68.71;95648.34;5011924;28;20177;-73
2020/12/21 05:09:03;;;;;;;11.43;5.80;;;;;;;5.23;69.01;95657.19;5011949;28;20231;-74
2020/12/21 05:11:29;;;;;;;10.30;5.93;;;;;;;5.40;67.94;95656.63;5011679;28;20196;-74
2020/12/21 05:14:08;;;;;;;18.33;7.17;;;;;;;5.27;68.87;95670.63;5012190;28;20219;-75
2020/12/21 05:16:33;;;;;;;11.23;7.13;;;;;;;5.23;68.79;95651.91;5011865;28;20177;-75
2020/12/21 05:18:59;;;;;;;8.53;5.10;;;;;;;5.37;68.22;95661.72;5010877;28;20211;-74
2020/12/21 05:21:28;;;;;;;12.60;6.30;;;;;;;5.30;68.75;95670.06;5011889;28;20176;-73
2020/12/21 05:23:57;;;;;;;11.55;6.15;;;;;;;5.36;68.52;95665.44;5012327;28;20238;-74
2020/12/21 05:26:30;;;;;;;12.48;6.78;;;;;;;5.43;68.74;95663.97;5011923;28;20734;-74
2020/12/21 05:28:56;;;;;;;10.98;6.57;;;;;;;5.23;68.89;95659.06;5011763;28;20684;-73
2020/12/21 05:31:21;;;;;;;12.03;6.20;;;;;;;5.23;69.43;95661.72;5011769;28;20188;-75
2020/12/21 05:33:48;;;;;;;12.67;6.50;;;;;;;5.28;69.29;95664.28;5012345;28;20169;-76
2020/12/21 05:36:15;;;;;;;14.55;7.22;;;;;;;5.05;70.05;95642.16;5012214;28;20173;-76
2020/12/21 05:38:41;;;;;;;11.27;6.38;;;;;;;5.29;69.14;95665.84;5012369;28;20682;-75
2020/12/21 05:41:09;;;;;;;10.18;5.68;;;;;;;5.25;70.42;95664.84;5012214;28;20169;-75
2020/12/21 05:43:36;;;;;;;11.73;6.63;;;;;;;5.18;69.82;95656.50;5012005;28;20184;-75
2020/12/21 05:46:12;;;;;;;13.93;6.90;;;;;;;5.13;69.47;95630.13;5011749;28;20172;-73
2020/12/21 05:48:48;;;;;;;15.25;6.90;;;;;;;5.13;69.31;95635.41;5011657;28;20176;-74
2020/12/21 05:51:23;;;;;;;14.23;6.57;;;;;;;5.23;68.89;95656.41;5011270;28;20172;-76
2020/12/21 05:53:52;;;;;;;12.23;6.87;;;;;;;5.29;69.77;95665.84;5010024;28;20585;-74
2020/12/21 05:56:17;;;;;;;14.27;7.20;;;;;;;5.19;69.62;95660.72;5011758;28;20619;-76
2020/12/21 05:58:43;;;;;;;12.73;7.30;;;;;;;5.09;70.72;95674.13;4997530;28;20606;-74
2020/12/21 06:01:10;;;;;;;14.03;7.40;;;;;;;5.27;69.55;95671.41;5010563;28;20572;-75
2020/12/21 06:03:56;;;;;;;12.93;6.88;;;;;;;5.16;70.24;95669.22;5030574;28;20553;-74
2020/12/21 06:06:29;;;;;;;17.07;6.70;;;;;;;5.14;70.55;95668.75;5023406;28;20181;-76
2020/12/21 06:08:55;;;;;;;13.07;7.40;;;;;;;5.25;70.72;95670.94;5026419;28;20678;-76
2020/12/21 06:11:30;;;;;;;13.17;6.93;;;;;;;5.20;70.48;95665.72;5011415;28;20556;-75
2020/12/21 06:14:06;;;;;;;13.00;6.57;;;;;;;5.16;70.44;95671.88;5012207;28;20559;-73
2020/12/21 06:16:36;;;;;;;20.10;7.33;;;;;;;4.94;70.29;95641.56;5010174;28;20629;-75
2020/12/21 06:19:09;;;;;;;14.68;6.90;;;;;;;5.14;70.01;95669.53;5011079;28;21146;-77
2020/12/21 06:21:36;;;;;;;19.23;8.20;;;;;;;4.97;70.52;95638.31;5014932;28;20183;-75
2020/12/21 06:24:01;;;;;;;15.23;6.93;;;;;;;5.25;70.03;95670.94;5013899;28;20181;-73
2020/12/21 06:26:37;;;;;;;14.37;7.13;;;;;;;5.08;70.19;95649.50;5014763;28;20627;-74
2020/12/21 06:29:08;;;;;;;18.00;8.60;;;;;;;5.14;70.64;95671.38;5013081;28;20188;-76
2020/12/21 06:31:46;;;;;;;15.10;6.93;;;;;;;5.23;69.85;95667.00;5014995;28;20594;-76
2020/12/21 06:34:14;;;;;;;20.90;7.77;;;;;;;5.18;70.16;95667.09;5014747;28;20651;-78
2020/12/21 06:36:39;;;;;;;14.10;7.47;;;;;;;5.15;70.41;95670.31;5014208;28;20582;-74
2020/12/21 06:39:05;;;;;;;21.33;8.57;;;;;;;4.87;70.45;95638.47;5019076;28;20267;-73
2020/12/21 06:41:31;;;;;;;18.57;7.70;;;;;;;4.93;70.01;95632.03;5021411;28;20702;-74
2020/12/21 06:44:04;;;;;;;21.23;9.93;;;;;;;4.91;70.47;95639.47;5024512;28;20196;-74
2020/12/21 06:46:30;;;;;;;19.70;9.68;;;;;;;5.18;69.94;95675.81;5012383;28;20189;-73
2020/12/21 06:49:08;;;;;;;18.83;7.87;;;;;;;5.19;71.16;95679.25;5025198;28;20209;-74
2020/12/21 06:51:35;;;;;;;19.27;7.43;;;;;;;5.23;71.33;95677.59;5013462;28;20173;-74
2020/12/21 06:54:02;;;;;;;17.20;8.07;;;;;;;5.26;71.44;95671.72;5039751;28;20184;-74
2020/12/21 06:56:28;;;;;;;23.00;8.88;;;;;;;5.29;70.49;95674.56;5031075;28;20251;-74
2020/12/21 06:58:55;;;;;;;18.17;9.03;;;;;;;5.14;70.44;95653.66;5031291;28;20260;-74
2020/12/21 07:01:24;;;;;;;16.75;8.98;;;;;;;5.23;69.47;95646.59;5014085;28;20811;-74
2020/12/21 07:03:50;;;;;;;21.10;8.85;;;;;;;5.43;69.63;95671.94;5014437;28;20181;-74
2020/12/21 07:06:16;;;;;;;20.03;9.17;;;;;;;5.26;69.82;95669.84;5014372;28;20181;-74
2020/12/21 07:08:43;;;;;;;20.97;9.40;;;;;;;5.05;70.54;95639.53;5011976;28;20657;-74
2020/12/21 07:11:16;;;;;;;18.92;9.00;;;;;;;5.46;69.70;95681.16;5014339;28;20189;-75
2020/12/21 07:13:43;;;;;;;20.53;8.77;;;;;;;5.49;68.95;95668.09;5032385;28;20180;-75
2020/12/21 07:16:08;;;;;;;18.90;8.47;;;;;;;5.63;68.77;95675.28;5033940;28;20685;-74
2020/12/21 07:18:34;;;;;;;18.33;9.03;;;;;;;5.53;68.93;95685.00;5033549;28;20686;-74
2020/12/21 07:21:00;;;;;;;16.87;9.30;;;;;;;5.29;69.41;95665.84;5034138;28;20176;-75
2020/12/21 07:23:25;;;;;;;17.30;8.37;;;;;;;5.30;69.47;95656.81;5032206;28;20718;-74
2020/12/21 07:25:51;;;;;;;17.50;8.53;;;;;;;5.41;68.31;95655.56;5033419;28;20168;-73
2020/12/21 07:28:26;;;;;;;17.43;8.77;;;;;;;5.38;69.64;95682.59;5033434;28;20184;-74
2020/12/21 07:30:52;;;;;;;19.48;9.45;;;;;;;5.37;69.26;95667.03;5033064;28;20183;-74
2020/12/21 07:33:17;;;;;;;19.33;9.47;;;;;;;5.23;69.26;95670.44;5033484;28;20176;-73
2020/12/21 07:35:43;;;;;;;18.43;8.33;;;;;;;5.37;69.88;95699.59;5033657;28;20172;-74
2020/12/21 07:38:10;;;;;;;15.60;8.73;;;;;;;5.45;69.49;95693.63;5033712;28;20222;-71
2020/12/21 07:40:36;;;;;;;20.90;9.70;;;;;;;5.58;86.30;95692.06;5033818;28;20265;-73
2020/12/21 07:43:02;;;;;;;20.73;10.37;;;;;;;5.58;71.48;95690.19;5015793;28;20547;-75
2020/12/21 07:45:29;;;;;;;17.05;8.77;;;;;;;5.42;69.66;95654.47;5015901;28;20204;-75
2020/12/21 07:47:55;;;;;;;21.00;8.10;;;;;;;5.65;68.42;95686.38;5015800;28;20728;-75
2020/12/21 07:50:20;;;;;;;16.70;8.53;;;;;;;5.62;68.36;95694.94;5032239;28;20637;-74
2020/12/21 07:52:46;;;;;;;23.37;7.43;;;;;;;10.76;95.70;95701.75;5032254;28;20259;-73
2020/12/21 07:55:12;;;;;;;16.30;7.60;;;;;;;9.16;96.28;95690.81;5031981;28;20219;-74
2020/12/21 07:57:37;;;;;;;21.37;9.03;;;;;;;6.93;86.21;95695.91;5015791;28;20180;-76
2020/12/21 08:00:03;;;;;;;17.70;9.40;;;;;;;6.39;87.92;95689.69;5033156;28;20226;-76
2020/12/21 08:02:29;;;;;;;19.50;8.40;;;;;;;6.17;75.15;95689.63;5033205;28;20628;-75
2020/12/21 08:04:54;;;;;;;19.33;8.57;;;;;;;5.87;69.50;95653.91;5033291;28;20666;-75
2020/12/21 08:07:26;;;;;;;15.87;7.13;;;;;;;5.96;67.35;95684.75;5032951;28;20168;-75
2020/12/21 08:09:51;;;;;;;8.97;5.43;;;;;;;5.75;66.69;95692.28;5033089;28;20196;-76
2020/12/21 08:12:17;;;;;;;10.23;5.93;;;;;;;5.92;66.18;95694.38;5032925;28;20589;-73
2020/12/21 08:14:45;;;;;;;10.07;6.23;;;;;;;5.78;66.06;95677.63;5032807;28;20568;-75
2020/12/21 08:17:15;;;;;;;10.03;5.50;;;;;;;5.67;65.06;95666.47;5031373;28;20595;-74
2020/12/21 08:20:01;;;;;;;14.53;5.30;;;;;;;5.85;66.26;95696.59;5032593;28;20598;-75
2020/12/21 08:22:29;;;;;;;9.10;5.23;;;;;;;5.61;66.29;95661.53;5032477;28;20590;-75
2020/12/21 08:25:11;;;;;;;10.80;5.53;;;;;;;5.81;65.21;95691.09;5032683;28;20621;-75
2020/12/21 08:27:58;;;;;;;12.70;6.07;;;;;;;5.77;65.06;95691.97;5033250;28;20626;-74
2020/12/21 08:30:24;;;;;;;8.40;5.07;;;;;;;5.60;65.82;95687.25;5030806;28;20645;-74
2020/12/21 08:32:52;;;;;;;9.93;6.57;;;;;;;5.65;65.36;95694.31;5032210;28;20606;-75
2020/12/21 08:35:27;;;;;;;9.47;5.73;;;;;;;5.74;65.47;95687.28;5032145;28;20191;-75
2020/12/21 08:37:53;;;;;;;13.83;6.73;;;;;;;5.79;65.94;95690.63;5032313;28;20619;-74
2020/12/21 08:40:21;;;;;;;11.17;6.20;;;;;;;5.67;65.55;95687.66;5032816;28;20615;-75
2020/12/21 08:42:48;;;;;;;14.77;7.07;;;;;;;5.46;65.93;95659.97;5033003;28;20173;-74
2020/12/21 08:45:21;;;;;;;10.30;6.37;;;;;;;5.85;65.44;95683.34;5032285;28;20686;-75
2020/12/21 08:47:47;;;;;;;10.97;6.07;;;;;;;5.80;64.52;95673.63;5032208;28;20681;-74
2020/12/21 08:50:12;;;;;;;12.67;5.23;;;;;;;6.03;63.77;95682.47;5030446;28;20650;-74
2020/12/21 08:52:38;;;;;;;11.47;5.60;;;;;;;5.90;63.74;95677.94;5031966;28;21213;-74
2020/12/21 08:55:06;;;;;;;8.37;5.30;;;;;;;5.57;64.24;95640.94;5032261;28;20673;-75
2020/12/21 08:57:32;;;;;;;9.00;5.23;;;;;;;5.92;63.85;95664.44;5031998;28;20200;-74
2020/12/21 08:59:58;;;;;;;10.50;6.37;;;;;;;5.63;64.66;95648.81;5032684;28;21179;-75
2020/12/21 09:02:23;;;;;;;14.53;6.13;;;;;;;5.73;64.38;95644.09;5031498;28;20619;-75
2020/12/21 09:04:49;;;;;;;13.30;6.40;;;;;;;6.00;63.94;95672.44;5031978;28;20172;-77
2020/12/21 09:07:14;;;;;;;13.03;7.20;;;;;;;5.71;63.42;95637.50;5031581;28;20192;-74
2020/12/21 09:09:40;;;;;;;13.07;6.53;;;;;;;5.92;63.71;95670.50;5031749;28;20220;-75
2020/12/21 09:12:06;;;;;;;10.97;6.20;;;;;;;5.69;64.60;95668.81;5031551;28;20265;-74
2020/12/21 09:14:32;;;;;;;15.07;7.17;;;;;;;5.78;64.35;95661.72;5030716;28;20168;-76
2020/12/21 09:16:57;;;;;;;9.20;6.33;;;;;;;5.78;64.88;95659.91;5031995;28;20606;-75
2020/12/21 09:19:23;;;;;;;12.57;6.83;;;;;;;5.68;64.24;95630.16;5031669;28;20172;-76
2020/12/21 09:21:48;;;;;;;13.93;7.47;;;;;;;5.73;64.06;95633.50;5031660;28;20165;-75
2020/12/21 09:24:14;;;;;;;13.97;7.20;;;;;;;5.71;64.55;95630.34;5031356;28;20175;-76
2020/12/21 09:26:39;;;;;;;15.17;8.33;;;;;;;5.91;64.44;95662.84;5030259;28;20648;-75
2020/12/21 09:29:05;;;;;;;11.37;7.37;;;;;;;6.06;64.19;95663.34;5031280;28;20235;-76
2020/12/21 09:31:30;;;;;;;12.43;7.03;;;;;;;6.00;64.11;95656.53;5031719;28;20600;-76
2020/12/21 09:33:56;;;;;;;20.93;7.17;;;;;;;6.06;63.48;95634.19;5031620;28;20184;-76
2020/12/21 09:36:22;;;;;;;11.73;7.07;;;;;;;5.83;65.07;95649.16;5031563;28;20179;-76
2020/12/21 09:38:48;;;;;;;13.93;6.63;;;;;;;6.12;63.74;95648.13;5031444;28;20183;-76
2020/12/21 09:41:18;;;;;;;16.17;7.23;;;;;;;6.10;63.73;95644.97;5031412;28;20203;-76
2020/12/21 09:43:47;;;;;;;11.03;6.40;;;;;;;6.06;62.97;95626.22;5031528;28;20640;-76
2020/12/21 09:46:19;;;;;;;12.40;6.97;;;;;;;5.81;63.87;95650.56;5031247;28;20579;-76
2020/12/21 09:48:46;;;;;;;12.77;7.97;;;;;;;5.88;63.86;95645.63;5031114;28;20614;-77
2020/12/21 09:51:12;;;;;;;10.63;6.50;;;;;;;5.85;63.96;95640.94;5031273;28;20586;-76
2020/12/21 09:53:38;;;;;;;23.03;8.50;;;;;;;5.58;65.24;95647.03;5032043;28;21164;-76
2020/12/21 09:56:04;;;;;;;13.43;7.47;;;;;;;5.76;65.00;95629.44;5035165;28;20168;-76
2020/12/21 09:58:29;;;;;;;14.37;7.63;;;;;;;5.77;64.52;95629.16;5035100;28;20929;-76
2020/12/21 10:00:55;;;;;;;10.87;7.40;;;;;;;5.68;64.54;95603.66;5033894;28;20629;-76
2020/12/21 10:03:20;;;;;;;17.93;7.53;;;;;;;5.87;64.13;95633.47;5035006;28;20168;-77
2020/12/21 10:05:46;;;;;;;13.20;8.23;;;;;;;5.92;64.01;95611.41;5033595;28;20237;-76
2020/12/21 10:08:11;;;;;;;14.33;7.73;;;;;;;6.06;64.08;95625.41;5035110;28;20175;-76
2020/12/21 10:10:37;;;;;;;17.10;8.77;;;;;;;5.91;64.40;95623.06;5033477;28;20289;-76
2020/12/21 10:13:03;;;;;;;11.63;7.47;;;;;;;5.68;64.74;95603.66;5035009;28;20169;-76
2020/12/21 10:15:28;;;;;;;16.97;7.60;;;;;;;5.87;65.33;95624.75;5034779;28;20195;-75
2020/12/21 10:17:54;;;;;;;16.37;8.30;;;;;;;5.87;64.80;95622.09;5034713;28;20627;-75
2020/12/21 10:20:19;;;;;;;16.90;8.13;;;;;;;5.81;65.12;95608.16;5034764;28;20561;-76
2020/12/21 10:22:45;;;;;;;16.43;9.23;;;;;;;6.03;64.82;95599.50;5034559;28;20176;-76
2020/12/21 10:25:10;;;;;;;18.63;10.20;;;;;;;5.80;65.62;95593.34;5034641;28;20169;-75
2020/12/21 10:27:36;;;;;;;19.70;9.40;;;;;;;5.70;64.83;95583.72;5034326;28;20212;-76
2020/12/21 10:30:01;;;;;;;20.40;10.00;;;;;;;5.67;65.43;95586.16;5034617;28;20195;-75
2020/12/21 10:32:27;;;;;;;16.03;8.87;;;;;;;6.04;65.08;95614.34;5034191;28;20721;-78
2020/12/21 10:34:52;;;;;;;17.20;9.13;;;;;;;5.94;65.28;95595.97;5034512;28;20665;-75
2020/12/21 10:37:17;;;;;;;17.03;9.17;;;;;;;5.88;65.03;95597.16;5034334;28;20161;-75
2020/12/21 10:39:43;;;;;;;16.10;8.17;;;;;;;5.98;64.49;95610.22;5034632;28;20171;-76
2020/12/21 10:42:09;;;;;;;15.97;8.17;;;;;;;5.66;65.21;95569.50;5034412;28;20311;-74
2020/12/21 10:44:34;;;;;;;15.03;9.03;;;;;;;5.77;64.53;95583.31;5034142;28;20629;-73
2020/12/21 10:47:00;;;;;;;16.27;9.63;;;;;;;5.71;63.95;95565.97;5034366;28;20200;-73
2020/12/21 10:49:25;;;;;;;16.37;8.83;;;;;;;5.97;64.45;95595.41;5034087;28;20192;-71
2020/12/21 10:51:51;;;;;;;21.07;9.57;;;;;;;7.61;89.51;95601.72;5034457;28;20604;-74
2020/12/21 10:54:16;;;;;;;16.70;8.53;;;;;;;10.53;93.57;95596.38;5034044;28;20604;-74
2020/12/21 10:56:42;;;;;;;16.63;8.33;;;;;;;11.87;83.07;95599.34;5035221;28;20669;-77
2020/12/21 10:59:08;;;;;;;16.87;9.43;;;;;;;12.23;78.75;95605.78;5033974;28;20581;-75
2020/12/21 11:01:33;;;;;;;16.70;9.00;;;;;;;13.06;71.23;95606.97;5034123;28;20199;-73
2020/12/21 11:03:59;;;;;;;24.30;10.00;;;;;;;13.91;68.76;95607.56;5033892;28;20631;-73
2020/12/21 11:06:24;;;;;;;15.53;9.20;;;;;;;14.03;64.37;95594.81;5033034;28;20647;-75
2020/12/21 11:08:51;;;;;;;17.80;9.90;;;;;;;13.73;57.61;95596.41;5033894;28;20310;-74
2020/12/21 11:11:26;;;;;;;16.80;9.53;;;;;;;11.72;56.67;95608.00;5033765;28;20184;-74
2020/12/21 11:13:52;;;;;;;23.57;10.33;;;;;;;11.74;55.67;95615.72;5033894;28;20586;-71
2020/12/21 11:16:18;;;;;;;16.57;9.57;;;;;;;12.17;52.87;95597.19;5032541;28;20579;-72
2020/12/21 11:18:43;;;;;;;17.43;10.93;;;;;;;11.55;53.85;95613.59;5033584;28;21069;-73
2020/12/21 11:21:09;;;;;;;15.73;9.87;;;;;;;12.85;60.96;95611.75;5033510;28;20176;-81
2020/12/21 11:23:34;;;;;;;20.13;10.10;;;;;;;13.20;60.26;95610.03;5033745;28;20203;-72
2020/12/21 11:26:00;;;;;;;14.17;9.60;;;;;;;12.62;49.37;95601.56;5033113;28;20211;-74
2020/12/21 11:28:25;;;;;;;19.63;11.60;;;;;;;10.32;50.60;95610.50;5033697;28;20187;-73
2020/12/21 11:30:51;;;;;;;23.00;11.20;;;;;;;9.28;54.08;95603.00;5033297;28;20208;-72
2020/12/21 11:33:16;;;;;;;23.57;10.50;;;;;;;8.19;57.11;95602.47;5033475;28;20179;-72